Time;durP1;ratioP1;P1;durP2;ratioP2;P2;SDS_P1;SDS_P2;PMS_P1;PMS_P2;Temp;Humidity;BMP_temperature;BMP_pressure;BME280_temperature;BME280_humidity;BME280_pressure;Samples;Min_cycle;Max_cycle;Signal;HPM_P1;HPM_P2
2022/11/10 00:05:18;;;;;;;7.07;2.20;;;;;;;;;;10445434;28;20037;-82
2022/11/10 00:21:59;;;;;;;9.77;1.38;;;;;;;;;;10446958;28;20037;-81
2022/11/10 00:27:21;;;;;;;4.95;1.05;;;;;;;;;;10450398;28;20044;-81
2022/11/10 00:32:46;;;;;;;4.90;1.35;;;;;;;;;;10463238;28;20040;-81
2022/11/10 00:38:08;;;;;;;3.95;1.30;;;;;;;;;;10467631;28;20056;-83
2022/11/10 00:43:31;;;;;;;6.43;1.40;;;;;;;;;;10456158;28;20660;-82
2022/11/10 00:48:55;;;;;;;6.60;1.63;;;;;;;;;;10427502;28;20044;-82
2022/11/10 00:54:16;;;;;;;6.03;1.60;;;;;;;;;;10462927;28;20037;-81
2022/11/10 00:59:39;;;;;;;5.00;1.40;;;;;;;;;;10456272;28;20037;-81
2022/11/10 01:05:02;;;;;;;4.05;1.40;;;;;;;;;;10448194;28;20414;-82
2022/11/10 01:10:25;;;;;;;2.42;1.23;;;;;;;;;;10455572;28;20837;-81
2022/11/10 01:15:47;;;;;;;3.22;1.27;;;;;;;;;;10463456;28;20514;-81
2022/11/10 01:21:11;;;;;;;5.65;1.77;;;;;;;;;;10449075;28;20041;-82
2022/11/10 01:26:33;;;;;;;4.47;1.40;;;;;;;;;;10468431;28;20048;-83
2022/11/10 01:31:55;;;;;;;3.85;1.40;;;;;;;;;;10464115;28;20037;-82
2022/11/10 01:37:19;;;;;;;3.97;1.20;;;;;;;;;;10452152;28;20041;-83
2022/11/10 01:42:49;;;;;;;1.70;0.93;;;;;;;;;;10471464;28;20048;-81
2022/11/10 01:48:16;;;;;;;3.75;0.93;;;;;;;;;;10468371;28;20494;-82
2022/11/10 01:53:44;;;;;;;6.22;2.05;;;;;;;;;;10462417;28;20471;-81
2022/11/10 01:59:09;;;;;;;5.78;1.00;;;;;;;;;;10465069;28;20037;-83
2022/11/10 02:04:32;;;;;;;3.47;0.70;;;;;;;;;;10468745;28;20530;-81
2022/11/10 02:09:56;;;;;;;2.58;0.63;;;;;;;;;;10446002;28;20045;-82
2022/11/10 02:15:18;;;;;;;2.63;0.63;;;;;;;;;;10466506;28;20419;-83
2022/11/10 02:20:44;;;;;;;1.60;0.57;;;;;;;;;;10461806;28;20037;-82
2022/11/10 02:26:07;;;;;;;0.75;0.40;;;;;;;;;;10441440;28;20069;-82
2022/11/10 02:31:29;;;;;;;1.85;0.55;;;;;;;;;;10450475;28;20526;-82
2022/11/10 02:36:53;;;;;;;3.35;0.60;;;;;;;;;;10451420;28;20045;-81
2022/11/10 02:42:15;;;;;;;0.63;0.40;;;;;;;;;;10443364;28;20088;-81
2022/11/10 02:47:37;;;;;;;1.70;0.57;;;;;;;;;;10443613;28;20041;-81
2022/11/10 02:53:01;;;;;;;2.50;0.57;;;;;;;;;;10437018;28;20037;-82
2022/11/10 02:58:22;;;;;;;2.13;0.43;;;;;;;;;;10443266;28;20065;-82
2022/11/10 03:03:45;;;;;;;1.13;0.40;;;;;;;;;;10443464;28;20041;-82
2022/11/10 03:09:08;;;;;;;1.30;0.63;;;;;;;;;;10445677;28;20044;-82
2022/11/10 03:14:30;;;;;;;1.02;0.50;;;;;;;;;;10442715;28;20045;-82
2022/11/10 03:19:52;;;;;;;4.15;0.60;;;;;;;;;;10444184;28;20040;-81
2022/11/10 03:25:16;;;;;;;3.08;0.82;;;;;;;;;;10443702;28;20046;-82
2022/11/10 03:30:38;;;;;;;2.15;0.60;;;;;;;;;;10444579;28;20061;-83
2022/11/10 03:36:01;;;;;;;0.95;0.80;;;;;;;;;;10444188;28;20112;-82
2022/11/10 03:41:24;;;;;;;2.03;0.60;;;;;;;;;;10444208;28;20033;-82
2022/11/10 03:46:46;;;;;;;1.92;0.73;;;;;;;;;;10444578;28;20524;-81
2022/11/10 03:52:11;;;;;;;2.03;0.80;;;;;;;;;;10451260;28;20045;-82
2022/11/10 03:57:34;;;;;;;1.48;0.80;;;;;;;;;;10451022;28;20048;-82
2022/11/10 04:02:57;;;;;;;0.80;0.57;;;;;;;;;;10450776;28;20044;-82
2022/11/10 04:19:54;;;;;;;1.95;0.60;;;;;;;;;;10315399;28;20713;-82
2022/11/10 04:25:16;;;;;;;0.57;0.40;;;;;;;;;;10428392;28;20037;-82
2022/11/10 04:30:40;;;;;;;1.83;0.80;;;;;;;;;;10437166;28;20457;-83
2022/11/10 04:36:02;;;;;;;1.35;0.60;;;;;;;;;;10435441;28;20037;-83
2022/11/10 04:41:26;;;;;;;0.75;0.65;;;;;;;;;;10441493;28;20041;-82
2022/11/10 04:46:49;;;;;;;1.70;0.68;;;;;;;;;;10468159;28;20189;-82
2022/11/10 04:52:11;;;;;;;1.95;0.70;;;;;;;;;;10449352;28;20052;-82
2022/11/10 04:57:34;;;;;;;4.47;1.13;;;;;;;;;;10454474;28;20076;-82
2022/11/10 05:02:59;;;;;;;1.48;0.57;;;;;;;;;;10444270;28;20526;-82
2022/11/10 05:08:21;;;;;;;2.10;0.63;;;;;;;;;;10457669;28;20041;-82
2022/11/10 05:13:44;;;;;;;0.98;0.63;;;;;;;;;;10467024;28;20044;-82
2022/11/10 05:19:08;;;;;;;1.15;0.93;;;;;;;;;;10478980;28;20048;-83
2022/11/10 05:24:30;;;;;;;3.60;1.00;;;;;;;;;;10445809;28;20037;-82
2022/11/10 05:29:53;;;;;;;0.85;0.65;;;;;;;;;;10460787;28;20044;-82
2022/11/10 05:35:17;;;;;;;1.25;0.70;;;;;;;;;;10460738;28;20041;-82
2022/11/10 05:40:39;;;;;;;2.10;0.60;;;;;;;;;;10451299;28;20136;-82
2022/11/10 05:46:01;;;;;;;3.17;1.17;;;;;;;;;;10445903;28;20040;-82
2022/11/10 05:51:27;;;;;;;1.50;0.70;;;;;;;;;;10463824;28;20052;-82
2022/11/10 05:56:48;;;;;;;3.75;1.45;;;;;;;;;;10458940;28;20036;-82
2022/11/10 06:02:11;;;;;;;4.60;2.22;;;;;;;;;;10465319;28;20041;-83
2022/11/10 06:07:34;;;;;;;3.75;2.40;;;;;;;;;;10459677;28;20041;-82
2022/11/10 06:12:57;;;;;;;5.30;1.98;;;;;;;;;;10460091;28;20037;-83
2022/11/10 06:18:20;;;;;;;2.60;1.65;;;;;;;;;;10455545;28;20595;-82
2022/11/10 06:23:43;;;;;;;2.03;1.40;;;;;;;;;;10460708;28;20045;-82
2022/11/10 06:29:05;;;;;;;2.50;1.38;;;;;;;;;;10446064;28;20045;-82
2022/11/10 06:34:27;;;;;;;2.88;1.00;;;;;;;;;;10446980;28;20048;-81
2022/11/10 06:39:51;;;;;;;3.65;0.85;;;;;;;;;;10462983;28;20045;-82
2022/11/10 06:45:13;;;;;;;2.95;1.02;;;;;;;;;;10452269;28;20041;-82
2022/11/10 06:50:35;;;;;;;2.80;0.73;;;;;;;;;;10446665;28;20466;-82
2022/11/10 06:55:58;;;;;;;1.67;0.85;;;;;;;;;;10464164;28;20044;-81
2022/11/10 07:01:25;;;;;;;3.20;1.00;;;;;;;;;;10468137;28;20033;-81
2022/11/10 07:06:47;;;;;;;0.98;0.60;;;;;;;;;;10456555;28;20060;-81
2022/11/10 07:12:10;;;;;;;5.65;1.50;;;;;;;;;;10441641;28;20037;-81
2022/11/10 07:17:32;;;;;;;1.38;0.98;;;;;;;;;;10459362;28;20241;-82
2022/11/10 07:22:59;;;;;;;1.52;1.13;;;;;;;;;;10459093;28;20033;-81
2022/11/10 07:28:22;;;;;;;;;;;;;;;;;;10469243;28;20033;-81
2022/11/10 07:33:48;;;;;;;4.75;0.90;;;;;;;;;;10455818;28;19979;-82
2022/11/10 07:39:13;;;;;;;2.65;1.10;;;;;;;;;;10453598;28;20041;-82
2022/11/10 07:44:36;;;;;;;2.42;1.20;;;;;;;;;;10450671;28;20053;-82
2022/11/10 07:49:58;;;;;;;1.65;1.08;;;;;;;;;;10465057;28;20064;-82
2022/11/10 07:55:21;;;;;;;4.70;1.20;;;;;;;;;;10461169;28;20461;-81
2022/11/10 08:00:45;;;;;;;2.00;1.33;;;;;;;;;;10457559;28;20037;-81
2022/11/10 08:06:07;;;;;;;4.72;1.35;;;;;;;;;;10473225;28;20041;-82
2022/11/10 08:11:29;;;;;;;5.30;1.80;;;;;;;;;;10467422;28;20072;-82
2022/11/10 08:16:53;;;;;;;3.65;1.60;;;;;;;;;;10456270;28;20848;-81
2022/11/10 08:22:15;;;;;;;3.53;1.30;;;;;;;;;;10463446;28;20045;-82
2022/11/10 08:27:37;;;;;;;2.33;1.00;;;;;;;;;;10465306;28;20040;-82
2022/11/10 08:33:03;;;;;;;3.38;1.33;;;;;;;;;;10481504;28;20418;-82
2022/11/10 08:38:25;;;;;;;4.28;1.05;;;;;;;;;;10462805;28;20041;-81
2022/11/10 08:43:47;;;;;;;4.72;1.40;;;;;;;;;;10449238;28;20041;-81
2022/11/10 08:49:11;;;;;;;6.97;1.80;;;;;;;;;;10446031;28;20040;-81
2022/11/10 08:54:33;;;;;;;3.30;1.38;;;;;;;;;;10450292;28;20408;-81
2022/11/10 08:59:55;;;;;;;3.03;1.25;;;;;;;;;;10458399;28;20672;-81
2022/11/10 09:05:19;;;;;;;7.85;1.52;;;;;;;;;;10454360;28;20033;-81
2022/11/10 09:10:44;;;;;;;5.28;1.75;;;;;;;;;;10468918;28;20103;-82
2022/11/10 09:16:07;;;;;;;6.90;1.85;;;;;;;;;;10470188;28;20045;-82
2022/11/10 09:21:30;;;;;;;4.00;1.60;;;;;;;;;;10458948;28;20037;-82
2022/11/10 09:26:52;;;;;;;5.97;1.70;;;;;;;;;;10472300;28;20045;-81
2022/11/10 09:32:14;;;;;;;6.05;1.95;;;;;;;;;;10464010;28;20124;-81
2022/11/10 09:37:40;;;;;;;2.85;1.25;;;;;;;;;;10455812;28;20056;-82
2022/11/10 09:43:04;;;;;;;7.07;2.05;;;;;;;;;;10443668;28;20045;-81
2022/11/10 09:48:29;;;;;;;9.13;2.10;;;;;;;;;;10445830;28;20072;-82
2022/11/10 09:53:57;;;;;;;4.18;2.00;;;;;;;;;;10440015;28;20453;-81
2022/11/10 09:59:25;;;;;;;6.00;1.80;;;;;;;;;;10454370;28;20534;-81
2022/11/10 10:05:02;;;;;;;4.95;1.67;;;;;;;;;;10457462;28;20037;-81
2022/11/10 10:10:34;;;;;;;2.05;1.20;;;;;;;;;;10454365;28;20037;-81
2022/11/10 10:16:10;;;;;;;8.40;1.73;;;;;;;;;;10448028;28;20422;-81
2022/11/10 10:21:48;;;;;;;2.55;1.00;;;;;;;;;;10470981;28;20040;-81
2022/11/10 10:27:19;;;;;;;4.70;1.02;;;;;;;;;;10449917;28;20060;-81
2022/11/10 10:32:41;;;;;;;2.70;1.08;;;;;;;;;;10457855;28;20032;-81
2022/11/10 10:38:05;;;;;;;3.15;1.13;;;;;;;;;;10456640;28;20045;-82
2022/11/10 10:43:29;;;;;;;4.63;1.50;;;;;;;;;;10453379;28;20032;-82
2022/11/10 10:49:08;;;;;;;2.20;0.90;;;;;;;;;;10447744;28;20052;-81
2022/11/10 10:54:43;;;;;;;4.43;1.10;;;;;;;;;;10465872;28;20045;-82
2022/11/10 11:00:20;;;;;;;4.35;1.17;;;;;;;;;;10452409;28;20421;-81
2022/11/10 11:05:42;;;;;;;1.83;0.70;;;;;;;;;;10460210;28;20056;-81
2022/11/10 11:11:09;;;;;;;5.55;1.27;;;;;;;;;;10455116;28;20049;-81
2022/11/10 11:16:46;;;;;;;4.03;1.35;;;;;;;;;;10478789;28;20526;-81
2022/11/10 11:22:30;;;;;;;7.03;1.27;;;;;;;;;;10468976;28;20090;-81
2022/11/10 11:28:03;;;;;;;4.60;1.17;;;;;;;;;;10476023;28;20045;-81
2022/11/10 11:33:36;;;;;;;4.43;1.65;;;;;;;;;;10468411;28;20049;-82
2022/11/10 11:39:07;;;;;;;4.57;1.42;;;;;;;;;;10452859;28;20041;-81
2022/11/10 11:44:42;;;;;;;4.45;0.95;;;;;;;;;;10474511;28;20029;-81
2022/11/10 11:50:22;;;;;;;4.17;1.40;;;;;;;;;;10461985;28;20041;-82
2022/11/10 11:55:58;;;;;;;4.55;1.30;;;;;;;;;;10477741;28;20059;-81
2022/11/10 12:01:37;;;;;;;7.25;2.00;;;;;;;;;;10463422;28;20037;-81
2022/11/10 12:07:11;;;;;;;4.30;1.48;;;;;;;;;;10453261;28;20041;-81
2022/11/10 12:12:52;;;;;;;4.90;1.50;;;;;;;;;;10452164;28;20033;-81
2022/11/10 12:18:23;;;;;;;4.40;1.30;;;;;;;;;;10453300;28;20438;-80
2022/11/10 12:24:10;;;;;;;2.90;1.33;;;;;;;;;;10468291;28;20033;-82
2022/11/10 12:29:37;;;;;;;3.53;1.45;;;;;;;;;;10456154;28;20036;-81
2022/11/10 12:35:03;;;;;;;7.00;1.48;;;;;;;;;;10445857;28;20049;-81
2022/11/10 12:40:31;;;;;;;6.43;1.40;;;;;;;;;;10469968;28;20037;-80
2022/11/10 12:45:57;;;;;;;5.20;1.58;;;;;;;;;;10452736;28;20049;-82
2022/11/10 12:51:27;;;;;;;5.68;1.60;;;;;;;;;;10448120;28;20564;-81
2022/11/10 12:56:53;;;;;;;10.45;2.15;;;;;;;;;;10458376;28;20064;-81
2022/11/10 13:02:24;;;;;;;5.13;1.45;;;;;;;;;;10443610;28;20510;-81
2022/11/10 13:07:49;;;;;;;4.35;1.27;;;;;;;;;;10467718;28;20115;-83
2022/11/10 13:13:14;;;;;;;10.20;1.53;;;;;;;;;;10437715;28;20730;-81
2022/11/10 13:19:03;;;;;;;5.80;1.80;;;;;;;;;;10457484;28;20040;-82
2022/11/10 13:24:26;;;;;;;4.82;1.35;;;;;;;;;;10444264;28;20063;-80
2022/11/10 13:29:57;;;;;;;4.95;1.63;;;;;;;;;;10459989;28;20041;-84
2022/11/10 13:35:50;;;;;;;8.65;1.95;;;;;;;;;;10455736;28;20419;-81
2022/11/10 13:41:24;;;;;;;2.05;1.20;;;;;;;;;;10454683;28;20033;-80
2022/11/10 13:47:04;;;;;;;5.43;1.25;;;;;;;;;;10440189;28;20670;-81
2022/11/10 13:52:41;;;;;;;6.60;1.55;;;;;;;;;;10447011;28;20502;-81
2022/11/10 13:58:06;;;;;;;6.53;1.50;;;;;;;;;;10440701;28;20119;-81
2022/11/10 14:03:59;;;;;;;2.13;0.88;;;;;;;;;;10451699;28;20098;-83
2022/11/10 14:09:27;;;;;;;3.92;1.23;;;;;;;;;;10463243;28;20067;-81
2022/11/10 14:14:54;;;;;;;2.92;1.13;;;;;;;;;;10438708;28;20041;-81
2022/11/10 14:20:29;;;;;;;6.15;1.65;;;;;;;;;;10442928;28;20029;-82
2022/11/10 14:25:58;;;;;;;8.43;1.67;;;;;;;;;;10439492;28;20044;-81
2022/11/10 14:31:23;;;;;;;5.57;1.40;;;;;;;;;;10447144;28;20052;-83
2022/11/10 14:36:53;;;;;;;5.63;1.40;;;;;;;;;;10457535;28;20044;-81
2022/11/10 14:42:20;;;;;;;4.05;1.40;;;;;;;;;;10447527;28;20453;-82
2022/11/10 14:47:43;;;;;;;4.20;1.30;;;;;;;;;;10454288;28;20461;-81
2022/11/10 14:53:16;;;;;;;3.80;1.05;;;;;;;;;;10449833;28;20533;-81
2022/11/10 14:58:41;;;;;;;3.58;1.25;;;;;;;;;;10457179;28;20037;-83
2022/11/10 15:04:04;;;;;;;2.92;1.00;;;;;;;;;;10442335;28;20045;-82
2022/11/10 15:09:30;;;;;;;2.47;0.80;;;;;;;;;;10452833;28;20041;-82
2022/11/10 15:14:58;;;;;;;7.35;1.67;;;;;;;;;;10456940;28;20049;-82
2022/11/10 15:20:35;;;;;;;4.38;1.00;;;;;;;;;;10433665;28;20518;-81
2022/11/10 15:25:59;;;;;;;4.63;1.38;;;;;;;;;;10437763;28;20041;-80
2022/11/10 15:31:25;;;;;;;6.15;1.40;;;;;;;;;;10454676;28;20044;-81
2022/11/10 15:36:47;;;;;;;3.65;1.10;;;;;;;;;;10450267;28;20418;-81
2022/11/10 15:42:15;;;;;;;3.35;1.13;;;;;;;;;;10446651;28;20049;-81
2022/11/10 15:47:37;;;;;;;1.40;0.80;;;;;;;;;;10450087;28;20139;-81
2022/11/10 15:52:59;;;;;;;2.35;0.60;;;;;;;;;;10455247;28;20049;-81
2022/11/10 15:58:23;;;;;;;4.20;0.88;;;;;;;;;;10459421;28;20049;-82
2022/11/10 16:03:46;;;;;;;3.17;0.93;;;;;;;;;;10449980;28;20037;-81
2022/11/10 16:09:11;;;;;;;2.47;0.73;;;;;;;;;;10446768;28;20045;-83
2022/11/10 16:14:35;;;;;;;2.90;1.60;;;;;;;;;;10441550;28;20037;-81
2022/11/10 16:19:57;;;;;;;1.65;0.90;;;;;;;;;;10436091;28;20455;-81
2022/11/10 16:25:19;;;;;;;3.22;0.90;;;;;;;;;;10464860;28;20049;-81
2022/11/10 16:30:46;;;;;;;5.80;1.13;;;;;;;;;;10465328;28;20045;-82
2022/11/10 16:36:23;;;;;;;2.25;0.90;;;;;;;;;;10460496;28;20041;-82
2022/11/10 16:41:45;;;;;;;3.47;1.17;;;;;;;;;;10460957;28;20041;-81
2022/11/10 16:47:17;;;;;;;5.82;1.70;;;;;;;;;;10462845;28;20537;-81
2022/11/10 16:52:40;;;;;;;6.45;2.60;;;;;;;;;;10457580;28;20037;-81
2022/11/10 16:58:02;;;;;;;7.35;3.88;;;;;;;;;;10461619;28;20124;-81
2022/11/10 17:03:30;;;;;;;7.93;4.20;;;;;;;;;;10463385;28;20045;-83
2022/11/10 17:08:56;;;;;;;8.90;4.50;;;;;;;;;;10469359;28;20045;-83
2022/11/10 17:14:18;;;;;;;6.37;3.10;;;;;;;;;;10464100;28;20041;-81
2022/11/10 17:19:41;;;;;;;9.02;4.57;;;;;;;;;;10465623;28;20481;-81
2022/11/10 17:25:08;;;;;;;6.72;4.10;;;;;;;;;;10465218;28;20045;-82
2022/11/10 17:30:30;;;;;;;8.98;4.97;;;;;;;;;;10448547;28;20072;-82
2022/11/10 17:35:55;;;;;;;8.15;4.13;;;;;;;;;;10455946;28;20502;-82
2022/11/10 17:41:19;;;;;;;5.25;2.97;;;;;;;;;;10459845;28;20128;-81
2022/11/10 17:46:41;;;;;;;4.97;3.10;;;;;;;;;;10456004;28;20511;-81
2022/11/10 17:52:05;;;;;;;5.03;2.83;;;;;;;;;;10455385;28;20063;-81
2022/11/10 17:57:27;;;;;;;6.20;3.08;;;;;;;;;;10460430;28;20044;-81
2022/11/10 18:02:51;;;;;;;5.68;2.67;;;;;;;;;;10478331;28;20127;-82
2022/11/10 18:08:17;;;;;;;6.00;2.95;;;;;;;;;;10451548;28;20041;-84
2022/11/10 18:13:43;;;;;;;5.50;3.13;;;;;;;;;;10457618;28;20041;-82
2022/11/10 18:19:05;;;;;;;5.93;3.63;;;;;;;;;;10438183;28;20064;-81
2022/11/10 18:24:28;;;;;;;7.90;4.38;;;;;;;;;;10466453;28;20686;-81
2022/11/10 18:29:51;;;;;;;8.55;4.90;;;;;;;;;;10466831;28;20053;-83
2022/11/10 18:35:13;;;;;;;12.45;6.95;;;;;;;;;;10443347;28;20473;-82
2022/11/10 18:40:37;;;;;;;9.00;5.72;;;;;;;;;;10435128;28;20037;-81
2022/11/10 18:45:59;;;;;;;8.82;5.30;;;;;;;;;;10430411;28;20407;-81
2022/11/10 18:51:21;;;;;;;8.38;4.82;;;;;;;;;;10452603;28;20079;-81
2022/11/10 18:56:45;;;;;;;10.40;5.63;;;;;;;;;;10462225;28;20037;-81
2022/11/10 19:02:08;;;;;;;10.00;5.95;;;;;;;;;;10447068;28;20045;-81
2022/11/10 19:07:31;;;;;;;7.95;4.57;;;;;;;;;;10446410;28;20128;-83
2022/11/10 19:12:55;;;;;;;8.82;4.75;;;;;;;;;;10450716;28;20453;-83
2022/11/10 19:18:17;;;;;;;8.68;4.43;;;;;;;;;;10451028;28;20028;-81
2022/11/10 19:23:40;;;;;;;7.40;4.15;;;;;;;;;;10457405;28;20458;-82
2022/11/10 19:29:04;;;;;;;10.43;6.30;;;;;;;;;;10459941;28;20052;-81
2022/11/10 19:34:26;;;;;;;10.32;5.43;;;;;;;;;;10432628;28;20033;-82
2022/11/10 19:39:48;;;;;;;7.47;4.38;;;;;;;;;;10428046;28;20124;-81
2022/11/10 19:45:14;;;;;;;8.57;4.57;;;;;;;;;;10438514;28;20045;-82
2022/11/10 19:50:36;;;;;;;15.43;7.35;;;;;;;;;;10450759;28;20037;-83
2022/11/10 19:56:01;;;;;;;15.98;8.90;;;;;;;;;;10409551;28;20149;-82
2022/11/10 20:01:28;;;;;;;18.27;8.07;;;;;;;;;;10413597;28;20494;-82
2022/11/10 20:08:09;;;;;;;11.63;6.38;;;;;;;;;;10449904;28;20037;-82
2022/11/10 20:12:32;;;;;;;9.30;5.05;;;;;;;;;;10433073;28;20049;-82
2022/11/10 20:17:56;;;;;;;10.05;5.75;;;;;;;;;;10417711;28;20037;-82
2022/11/10 20:23:18;;;;;;;11.90;5.85;;;;;;;;;;10422106;28;20041;-85
2022/11/10 20:28:41;;;;;;;10.55;5.53;;;;;;;;;;10421724;28;20124;-85
2022/11/10 20:34:05;;;;;;;12.38;6.35;;;;;;;;;;10418052;28;20045;-83
2022/11/10 20:39:27;;;;;;;17.98;9.13;;;;;;;;;;10430131;28;20037;-83
2022/11/10 20:44:49;;;;;;;14.00;7.88;;;;;;;;;;10432774;28;20318;-82
2022/11/10 20:50:13;;;;;;;18.67;8.35;;;;;;;;;;10420777;28;20120;-82
2022/11/10 20:55:40;;;;;;;13.82;7.05;;;;;;;;;;10442773;28;20045;-83
2022/11/10 21:01:14;;;;;;;;;;;;;;;;;;10411640;28;20542;-82
2022/11/10 21:06:38;;;;;;;13.15;5.65;;;;;;;;;;10403470;28;20505;-84
2022/11/10 21:17:40;;;;;;;8.88;4.70;;;;;;;;;;10434064;28;20045;-82
2022/11/10 21:23:06;;;;;;;9.38;4.10;;;;;;;;;;10418060;28;20667;-83
2022/11/10 21:28:29;;;;;;;8.88;3.97;;;;;;;;;;10418833;28;20045;-82
2022/11/10 21:33:54;;;;;;;7.57;3.78;;;;;;;;;;10424953;28;20515;-83
2022/11/10 21:39:17;;;;;;;4.57;2.80;;;;;;;;;;10419468;28;20033;-82
2022/11/10 21:44:39;;;;;;;7.75;3.15;;;;;;;;;;10429306;28;20053;-81
2022/11/10 21:50:01;;;;;;;4.13;2.50;;;;;;;;;;10434128;28;20135;-81
2022/11/10 21:55:25;;;;;;;6.72;2.95;;;;;;;;;;10437051;28;20045;-82
2022/11/10 22:00:47;;;;;;;9.38;3.33;;;;;;;;;;10422470;28;20037;-82
2022/11/10 22:06:12;;;;;;;8.25;4.22;;;;;;;;;;10413513;28;20246;-83
2022/11/10 22:22:55;;;;;;;8.35;3.45;;;;;;;;;;10427717;28;20045;-83
2022/11/10 22:28:21;;;;;;;9.45;3.55;;;;;;;;;;10417401;28;20044;-83
2022/11/10 22:33:43;;;;;;;5.75;3.50;;;;;;;;;;10438046;28;20510;-83
2022/11/10 22:39:05;;;;;;;8.07;3.80;;;;;;;;;;10415190;28;20491;-83
2022/11/10 22:44:29;;;;;;;8.88;4.03;;;;;;;;;;10425414;28;20499;-82
2022/11/10 22:49:51;;;;;;;6.45;3.67;;;;;;;;;;10427327;28;20057;-83
2022/11/10 22:55:13;;;;;;;7.30;4.18;;;;;;;;;;10427097;28;20132;-82
2022/11/10 23:00:37;;;;;;;4.65;3.35;;;;;;;;;;10407721;28;20134;-83
2022/11/10 23:05:59;;;;;;;5.40;3.47;;;;;;;;;;10431865;28;20044;-82
2022/11/10 23:11:25;;;;;;;9.50;4.00;;;;;;;;;;10410363;28;20558;-82
2022/11/10 23:16:48;;;;;;;10.82;4.65;;;;;;;;;;10446321;28;20044;-82
2022/11/10 23:22:10;;;;;;;6.50;3.97;;;;;;;;;;10443614;28;20041;-83
2022/11/10 23:27:33;;;;;;;9.00;3.70;;;;;;;;;;10422951;28;20407;-83
2022/11/10 23:32:57;;;;;;;6.57;3.70;;;;;;;;;;10429574;28;20045;-82
2022/11/10 23:38:19;;;;;;;7.35;4.03;;;;;;;;;;10414680;28;20073;-83
2022/11/10 23:43:42;;;;;;;11.80;5.43;;;;;;;;;;10425787;28;20515;-82
2022/11/10 23:49:05;;;;;;;8.43;4.28;;;;;;;;;;10416582;28;20578;-82
2022/11/10 23:54:27;;;;;;;6.90;3.53;;;;;;;;;;10437730;28;20033;-82
2022/11/10 23:59:50;;;;;;;6.25;3.30;;;;;;;;;;10407974;28;20037;-82
